WetterOnline ( https://www.wetteronline.ch )

Wetter aktuell Rostock

Aktuelles Wetter: Rostock-Warnemünde (10m)

6-stündlich | Neueste Meldungen
Ortszeit Temperatur Wetter
Di, 20.08. 8:00 15.3° C wolkenlos
Di, 20.08. 2:00 15.2° C wolkenlos
Mo, 19.08. 20:00 19.3° C wolkig
Mo, 19.08. 14:00 21.5° C bewölkt
Mo, 19.08. 8:00 15.3° C bewölkt
Mo, 19.08. 2:00 15.0° C wolkenlos
So, 18.08. 20:00 17.6° C bewölkt
So, 18.08. 14:00 19.8° C Sprühregen
Ortszeit Temperatur Wetter
Di, 20.08. 12:30 21.1° C leicht bewölkt
Di, 20.08. 12:20 21.1° C leicht bewölkt
Di, 20.08. 12:10 20.9° C wolkig
Di, 20.08. 12:00 21.5° C wolkig
Di, 20.08. 11:50 21.5° C wolkig
Di, 20.08. 11:40 20.1° C wolkig
Di, 20.08. 11:30 20.4° C wolkig
Di, 20.08. 11:00 20.0° C wolkenlos
Di, 20.08. 10:30 19.5° C wolkenlos
Di, 20.08. 10:00 19.0° C wolkenlos
Di, 20.08. 9:30 18.5° C wolkenlos
Ortszeit Relative Feuchte Sichtweite
Di, 20.08. 8:00 73% 24 km
Di, 20.08. 2:00 91% 22 km
Mo, 19.08. 20:00 74% 30 km
Mo, 19.08. 14:00 52% 40 km
Mo, 19.08. 8:00 93% 8 km
Mo, 19.08. 2:00 91% 17 km
So, 18.08. 20:00 86% 23 km
So, 18.08. 14:00 88% 8 km
Ortszeit Relative Feuchte Sichtweite
Di, 20.08. 12:30 47% 29 km
Di, 20.08. 12:20 47% -
Di, 20.08. 12:10 49% -
Di, 20.08. 12:00 50% 30 km
Di, 20.08. 11:50 50% -
Di, 20.08. 11:40 55% -
Di, 20.08. 11:30 54% 35 km
Di, 20.08. 11:00 54% 17 km
Di, 20.08. 10:30 53% 17 km
Di, 20.08. 10:00 57% 25 km
Di, 20.08. 9:30 61% 35 km
Ortszeit Niederschlagsmenge Niederschlagsart
Di, 20.08. 8:00 0.0 l/m2 in 12 Std. -
Di, 20.08. 2:00 0.0 l/m2 in 6 Std. -
Mo, 19.08. 20:00 0.0 l/m2 in 12 Std. -
Mo, 19.08. 14:00 0.0 l/m2 in 6 Std. -
Mo, 19.08. 8:00 0.0 l/m2 in 12 Std. -
Mo, 19.08. 2:00 0.0 l/m2 in 6 Std. -
So, 18.08. 20:00 4 l/m2 in 12 Std. Regen
So, 18.08. 14:00 3 l/m2 in 6 Std. Regen
Ortszeit Niederschlagsmenge Niederschlagsart
Di, 20.08. 12:30 0.0 l/m2 in 1 Std. -
Di, 20.08. 12:20 keine Meldung -
Di, 20.08. 12:10 keine Meldung -
Di, 20.08. 12:00 0.0 l/m2 in 1 Std. -
Di, 20.08. 11:50 keine Meldung -
Di, 20.08. 11:40 keine Meldung -
Di, 20.08. 11:30 0.0 l/m2 in 1 Std. -
Di, 20.08. 11:00 0.0 l/m2 in 1 Std. -
Di, 20.08. 10:30 0.0 l/m2 in 1 Std. -
Di, 20.08. 10:00 0.0 l/m2 in 1 Std. -
Di, 20.08. 9:30 0.0 l/m2 in 1 Std. -
Ortszeit Stärke Spitze Richtung
km/h Bft. km/h Grad Sektor
Di, 20.08. 8:00 13 3 20 190° S
Di, 20.08. 2:00 9 2 19 170° S
Mo, 19.08. 20:00 7 2 40 270° W
Mo, 19.08. 14:00 14 3 36 230° SW
Mo, 19.08. 8:00 9 2 24 180° S
Mo, 19.08. 2:00 11 2 33 220° SW
So, 18.08. 20:00 15 3 33 260° W
So, 18.08. 14:00 7 2 22 170° S
Ortszeit Stärke Spitze Richtung
km/h Bft. km/h Grad Sektor
Di, 20.08. 12:30 13 3 26 240° SW
Di, 20.08. 12:20 13 3 - 240° SW
Di, 20.08. 12:10 15 3 - 240° SW
Di, 20.08. 12:00 14 3 32 260° W
Di, 20.08. 11:50 14 3 - 260° W
Di, 20.08. 11:40 14 3 - 250° W
Di, 20.08. 11:30 14 3 32 220° SW
Di, 20.08. 11:00 14 3 32 230° SW
Di, 20.08. 10:30 17 3 26 220° SW
Di, 20.08. 10:00 17 3 31 220° SW
Di, 20.08. 9:30 14 3 25 210° SW
Ortszeit Untergrenze Bedeckung Gattung
total tief tief mittel hoch
Di, 20.08. 8:00 8400 m 0/8 0/8 - - -
Di, 20.08. 2:00 - 0/8 0/8 - - -
Mo, 19.08. 20:00 2700 m 5/8 5/8 - - -
Mo, 19.08. 14:00 1230 m 7/8 7/8 - - -
Mo, 19.08. 8:00 180 m 7/8 7/8 - - -
Mo, 19.08. 2:00 - 0/8 0/8 - - -
So, 18.08. 20:00 480 m 8/8 7/8 - - -
So, 18.08. 14:00 450 m 8/8 8/8 - - -
Ortszeit Bedeckungsgrad in Achtel und Wolkenuntergrenze
Di, 20.08. 12:30 2(1350m) 3(1500m)
Di, 20.08. 12:20 2(1350m) 3(1500m)
Di, 20.08. 12:10 5(1350m) 6(1500m)
Di, 20.08. 12:00 6(1290m) 6(1500m)
Di, 20.08. 11:50 6(1290m) 6(1500m)
Di, 20.08. 11:40 4(1200m) 5(1440m)
Di, 20.08. 11:30 5(1170m) 5(1470m)
Di, 20.08. 11:00 1(1170m)
Di, 20.08. 10:30 keine Wolken
Di, 20.08. 10:00 keine Wolken
Di, 20.08. 9:30 keine Wolken
Ortszeit Luftdruck NN (hPa) Tendenz (hPa in 3 Std.)
Di, 20.08. 8:00 1020 + 0,9
Di, 20.08. 2:00 1018 + 0,7
Mo, 19.08. 20:00 1016 + 1,0
Mo, 19.08. 14:00 1014 + 1,3
Mo, 19.08. 8:00 1012 + 1,5
Mo, 19.08. 2:00 1009 + 1,6
So, 18.08. 20:00 1005 + 0,9
So, 18.08. 14:00 1005 - 0,9
Ortszeit Luftdruck NN (hPa) Tendenz (hPa in 3 Std.)
Di, 20.08. 12:30 1021 + 0,5
Di, 20.08. 12:20 1021 keine Meldung
Di, 20.08. 12:10 1021 keine Meldung
Di, 20.08. 12:00 1021 + 0,9
Di, 20.08. 11:50 1021 keine Meldung
Di, 20.08. 11:40 1021 keine Meldung
Di, 20.08. 11:30 1021 + 0,9
Di, 20.08. 11:00 1021 + 1,1
Di, 20.08. 10:30 1021 + 1,0
Di, 20.08. 10:00 1021 + 1,3
Di, 20.08. 9:30 1020 + 1,4
Ortszeit Schneehöhe (cm)
Di, 20.08. 8:00 -
Di, 20.08. 2:00 -
Mo, 19.08. 20:00 -
Mo, 19.08. 14:00 -
Mo, 19.08. 8:00 -
Mo, 19.08. 2:00 -
So, 18.08. 20:00 -
So, 18.08. 14:00 -
Ortszeit Schneehöhe (cm)
Di, 20.08. 12:30 -
Di, 20.08. 12:20 -
Di, 20.08. 12:10 -
Di, 20.08. 12:00 -
Di, 20.08. 11:50 -
Di, 20.08. 11:40 -
Di, 20.08. 11:30 -
Di, 20.08. 11:00 -
Di, 20.08. 10:30 -
Di, 20.08. 10:00 -
Di, 20.08. 9:30 -
Link zu dieser Seite / Seite empfehlen

Das Wetter in ...